createdAt,value
2018-07-22T00:00:34.677Z,17.80
2018-07-22T00:03:02.793Z,17.70
2018-07-22T00:05:30.908Z,17.70
2018-07-22T00:07:59.018Z,17.80
2018-07-22T00:10:28.200Z,17.70
2018-07-22T00:12:56.769Z,17.90
2018-07-22T00:15:24.969Z,17.80
2018-07-22T00:17:53.089Z,17.70
2018-07-22T00:20:21.221Z,17.60
2018-07-22T00:22:49.373Z,17.60
2018-07-22T00:25:17.785Z,17.60
2018-07-22T00:27:48.413Z,17.60
2018-07-22T00:30:16.825Z,17.60
2018-07-22T00:32:44.972Z,17.50
2018-07-22T00:35:13.109Z,17.60
2018-07-22T00:37:41.703Z,17.50
2018-07-22T00:40:11.294Z,17.50
2018-07-22T00:42:39.631Z,17.50
2018-07-22T00:45:09.691Z,17.50
2018-07-22T00:47:37.837Z,17.50
2018-07-22T00:50:06.039Z,17.50
2018-07-22T00:52:34.146Z,17.50
2018-07-22T00:55:02.261Z,17.50
2018-07-22T00:57:30.401Z,17.60
2018-07-22T00:59:58.595Z,17.60
2018-07-22T01:02:26.713Z,17.60
2018-07-22T01:04:54.815Z,17.60
2018-07-22T01:07:22.937Z,17.60
2018-07-22T01:09:51.148Z,17.60
2018-07-22T01:12:19.401Z,17.60
2018-07-22T01:14:47.608Z,17.60
2018-07-22T01:17:15.764Z,17.60
2018-07-22T01:19:43.939Z,17.60
2018-07-22T01:22:12.056Z,17.60
2018-07-22T01:24:40.184Z,17.50
2018-07-22T01:27:08.334Z,17.50
2018-07-22T01:29:36.446Z,17.60
2018-07-22T01:32:04.589Z,17.60
2018-07-22T01:34:32.746Z,17.90
2018-07-22T01:37:00.862Z,17.70
2018-07-22T01:39:29.004Z,17.60
2018-07-22T01:41:57.133Z,17.60
2018-07-22T01:44:25.274Z,17.60
2018-07-22T01:46:53.429Z,17.60
2018-07-22T01:49:21.536Z,17.60
2018-07-22T01:51:49.664Z,17.60
2018-07-22T01:54:17.804Z,17.50
2018-07-22T01:56:45.982Z,17.50
2018-07-22T01:59:14.162Z,17.40
2018-07-22T02:01:42.318Z,17.40
2018-07-22T02:04:10.390Z,17.40
2018-07-22T02:06:38.548Z,17.50
2018-07-22T02:09:07.786Z,17.50
2018-07-22T02:11:35.934Z,17.50
2018-07-22T02:14:04.887Z,17.60
2018-07-22T02:16:33.014Z,17.60
2018-07-22T02:19:01.127Z,17.60
2018-07-22T02:21:29.290Z,17.50
2018-07-22T02:23:57.408Z,17.60
2018-07-22T02:26:25.554Z,17.50
2018-07-22T02:28:53.670Z,17.50
2018-07-22T02:31:21.793Z,17.50
2018-07-22T02:33:49.923Z,17.50
2018-07-22T02:36:18.048Z,17.50
2018-07-22T02:38:46.206Z,17.50
2018-07-22T02:41:14.330Z,17.50
2018-07-22T02:43:42.463Z,17.50
2018-07-22T02:46:10.582Z,17.50
2018-07-22T02:48:38.809Z,17.50
2018-07-22T02:51:06.915Z,17.50
2018-07-22T02:53:35.052Z,17.50
2018-07-22T02:56:03.170Z,17.50
2018-07-22T02:58:31.298Z,17.50
2018-07-22T03:00:59.452Z,17.60
2018-07-22T03:03:27.682Z,17.60
2018-07-22T03:05:55.723Z,17.60
2018-07-22T03:08:23.841Z,17.60
2018-07-22T03:10:51.957Z,17.60
2018-07-22T03:13:20.085Z,17.60
2018-07-22T03:15:48.234Z,17.60
2018-07-22T03:18:16.348Z,17.60
2018-07-22T03:20:44.473Z,17.70
2018-07-22T03:23:12.591Z,17.70
2018-07-22T03:25:40.708Z,17.60
2018-07-22T03:28:08.901Z,17.70
2018-07-22T03:30:37.254Z,17.70
2018-07-22T03:33:05.401Z,17.70
2018-07-22T03:35:33.509Z,17.70
2018-07-22T03:38:01.614Z,17.70
2018-07-22T03:40:29.765Z,17.60
2018-07-22T03:42:57.878Z,17.60
2018-07-22T03:45:26.189Z,17.60
2018-07-22T03:47:54.306Z,17.60
2018-07-22T03:50:22.457Z,17.60
2018-07-22T03:52:50.577Z,17.70
2018-07-22T03:55:18.701Z,17.70
2018-07-22T03:57:46.851Z,17.70
2018-07-22T04:00:14.986Z,17.70
2018-07-22T04:02:43.126Z,17.70
2018-07-22T04:05:11.232Z,17.60
2018-07-22T04:07:39.353Z,17.60
2018-07-22T04:10:07.463Z,17.60
2018-07-22T04:12:35.582Z,17.60
2018-07-22T04:15:03.710Z,17.60
2018-07-22T04:17:31.833Z,17.60
2018-07-22T04:19:59.962Z,17.50
2018-07-22T04:22:28.132Z,17.50
2018-07-22T04:24:56.724Z,17.50
2018-07-22T04:27:24.882Z,17.50
2018-07-22T04:29:53.000Z,17.50
2018-07-22T04:32:21.136Z,17.60
2018-07-22T04:34:49.268Z,17.50
2018-07-22T04:37:17.393Z,17.50
2018-07-22T04:39:45.685Z,17.50
2018-07-22T04:42:13.816Z,17.40
2018-07-22T04:44:41.943Z,17.50
2018-07-22T04:47:10.069Z,17.50
2018-07-22T04:49:38.172Z,17.50
2018-07-22T04:52:06.437Z,17.60
2018-07-22T04:54:34.581Z,17.50
2018-07-22T04:57:02.713Z,17.50
2018-07-22T04:59:30.828Z,17.50
2018-07-22T05:01:58.943Z,17.50
2018-07-22T05:04:27.061Z,17.50
2018-07-22T05:06:55.199Z,17.50
2018-07-22T05:09:23.315Z,17.50
2018-07-22T05:11:51.451Z,17.50
2018-07-22T05:14:19.587Z,17.60
2018-07-22T05:16:47.758Z,17.60
2018-07-22T05:19:15.940Z,17.60
2018-07-22T05:21:44.065Z,17.60
2018-07-22T05:24:12.186Z,17.60
2018-07-22T05:26:40.322Z,17.60
2018-07-22T05:29:08.441Z,17.50
2018-07-22T05:31:36.571Z,17.50
2018-07-22T05:34:04.709Z,17.50
2018-07-22T05:36:32.853Z,17.50
2018-07-22T05:39:00.968Z,17.50
2018-07-22T05:41:29.098Z,17.60
2018-07-22T05:43:57.210Z,17.60
2018-07-22T05:46:25.325Z,17.60
2018-07-22T05:48:53.484Z,17.70
2018-07-22T05:51:22.616Z,17.80
2018-07-22T05:53:50.748Z,17.80
2018-07-22T05:56:18.894Z,17.90
2018-07-22T05:58:47.033Z,17.80
2018-07-22T06:01:15.161Z,17.90
2018-07-22T06:03:43.275Z,18.00
2018-07-22T06:06:11.395Z,17.90
2018-07-22T06:08:39.508Z,17.90
2018-07-22T06:11:07.622Z,18.00
2018-07-22T06:13:35.740Z,18.10
2018-07-22T06:16:03.903Z,18.10
2018-07-22T06:18:32.012Z,18.20
2018-07-22T06:21:00.133Z,18.30
2018-07-22T06:23:28.256Z,18.30
2018-07-22T06:25:56.336Z,18.30
2018-07-22T06:28:24.461Z,18.30
2018-07-22T06:30:52.617Z,18.40
2018-07-22T06:33:20.734Z,18.40
2018-07-22T06:35:48.881Z,18.50
2018-07-22T06:38:17.010Z,18.50
2018-07-22T06:40:45.124Z,18.60
2018-07-22T06:43:13.260Z,18.60
2018-07-22T06:45:41.375Z,18.60
2018-07-22T06:48:09.488Z,18.70
2018-07-22T06:50:37.869Z,18.70
2018-07-22T06:53:05.998Z,18.80
2018-07-22T06:55:34.385Z,18.90
2018-07-22T06:58:02.488Z,19.00
2018-07-22T07:00:30.613Z,19.10
2018-07-22T07:02:58.736Z,19.20
2018-07-22T07:05:26.870Z,19.20
2018-07-22T07:07:55.038Z,19.20
2018-07-22T07:10:23.193Z,19.30
2018-07-22T07:12:51.318Z,19.40
2018-07-22T07:15:19.494Z,19.40
2018-07-22T07:17:48.285Z,19.40
2018-07-22T07:20:16.390Z,19.40
2018-07-22T07:22:44.519Z,19.40
2018-07-22T07:25:12.645Z,19.50
2018-07-22T07:27:40.749Z,19.60
2018-07-22T07:30:08.876Z,19.60
2018-07-22T07:32:37.018Z,19.60
2018-07-22T07:35:05.189Z,19.60
2018-07-22T07:37:33.333Z,19.60
2018-07-22T07:40:01.450Z,19.70
2018-07-22T07:42:29.582Z,19.70
2018-07-22T07:44:57.713Z,19.90
2018-07-22T07:47:25.844Z,20.10
2018-07-22T07:49:53.998Z,20.40
2018-07-22T07:52:22.175Z,20.70
2018-07-22T07:54:50.307Z,20.80
2018-07-22T07:57:18.512Z,21.00
2018-07-22T07:59:46.638Z,21.20
2018-07-22T08:02:14.813Z,21.40
2018-07-22T08:04:42.913Z,21.60
2018-07-22T08:07:11.034Z,21.50
2018-07-22T08:09:39.186Z,21.70
2018-07-22T08:12:07.322Z,21.90
2018-07-22T08:14:35.434Z,22.10
2018-07-22T08:17:03.542Z,22.00
2018-07-22T08:19:31.692Z,22.00
2018-07-22T08:21:59.821Z,22.20
2018-07-22T08:24:27.959Z,22.40
2018-07-22T08:26:56.063Z,22.40
2018-07-22T08:29:28.299Z,22.50
2018-07-22T08:31:56.493Z,22.70
2018-07-22T08:34:24.649Z,22.90
2018-07-22T08:36:52.834Z,22.90
2018-07-22T08:39:22.234Z,23.20
2018-07-22T08:41:51.154Z,23.30
2018-07-22T08:44:19.363Z,23.10
2018-07-22T08:46:47.609Z,23.10
2018-07-22T08:49:15.893Z,22.90
2018-07-22T08:51:44.004Z,22.80
2018-07-22T08:54:12.157Z,22.70
2018-07-22T08:56:40.268Z,22.50
2018-07-22T08:59:08.401Z,22.50
2018-07-22T09:01:36.548Z,22.60
2018-07-22T09:04:04.762Z,22.50
2018-07-22T09:06:32.886Z,22.60
2018-07-22T09:09:01.010Z,22.60
2018-07-22T09:11:29.170Z,22.60
2018-07-22T09:13:57.601Z,22.60
2018-07-22T09:16:25.824Z,22.70
2018-07-22T09:18:54.057Z,22.60
2018-07-22T09:21:22.245Z,22.60
2018-07-22T09:23:50.385Z,22.50
2018-07-22T09:26:18.540Z,22.60
2018-07-22T09:28:46.624Z,22.80
2018-07-22T09:31:15.732Z,22.90
2018-07-22T09:33:43.865Z,22.80
2018-07-22T09:36:12.095Z,22.80
2018-07-22T09:38:40.096Z,22.80
2018-07-22T09:41:08.224Z,22.80
2018-07-22T09:43:36.379Z,22.70
2018-07-22T09:46:04.583Z,22.60
2018-07-22T09:48:32.700Z,22.50
2018-07-22T09:51:00.812Z,22.50
2018-07-22T09:53:28.936Z,22.40
2018-07-22T09:55:57.049Z,22.40
2018-07-22T09:58:25.198Z,22.50
2018-07-22T10:00:55.037Z,22.50
2018-07-22T10:03:24.090Z,22.50
2018-07-22T10:05:52.325Z,22.40
2018-07-22T10:08:20.554Z,22.30
2018-07-22T10:10:48.717Z,22.30
2018-07-22T10:13:16.846Z,22.40
2018-07-22T10:15:44.998Z,22.30
2018-07-22T10:18:13.186Z,22.30
2018-07-22T10:20:41.322Z,22.30
2018-07-22T10:23:09.545Z,22.40
2018-07-22T10:25:37.705Z,22.40
2018-07-22T10:28:05.920Z,22.30
2018-07-22T10:30:35.101Z,22.20
2018-07-22T10:33:04.280Z,22.00
2018-07-22T10:35:32.407Z,21.80
2018-07-22T10:38:00.521Z,21.90
2018-07-22T10:40:28.641Z,21.80
2018-07-22T10:42:56.762Z,21.80
2018-07-22T10:45:24.929Z,21.80
2018-07-22T10:47:53.067Z,21.70
2018-07-22T10:50:21.250Z,21.80
2018-07-22T10:52:50.464Z,21.80
2018-07-22T10:55:18.594Z,21.90
2018-07-22T10:57:46.726Z,22.10
2018-07-22T11:00:14.848Z,22.20
2018-07-22T11:02:43.605Z,22.30
2018-07-22T11:05:11.723Z,22.40
2018-07-22T11:07:39.852Z,22.40
2018-07-22T11:10:08.050Z,22.40
2018-07-22T11:12:36.270Z,22.50
2018-07-22T11:15:04.897Z,22.70
2018-07-22T11:17:33.051Z,22.80
2018-07-22T11:20:01.184Z,22.90
2018-07-22T11:22:29.313Z,23.00
2018-07-22T11:24:57.452Z,22.90
2018-07-22T11:27:25.606Z,22.90
2018-07-22T11:29:53.807Z,23.00
2018-07-22T11:32:21.940Z,23.00
2018-07-22T11:34:50.083Z,23.10
2018-07-22T11:37:18.225Z,23.10
2018-07-22T11:39:46.385Z,23.20
2018-07-22T11:42:14.502Z,23.30
2018-07-22T11:44:42.626Z,23.20
2018-07-22T11:47:10.766Z,23.30
2018-07-22T11:49:38.885Z,23.50
2018-07-22T11:52:07.167Z,23.80
2018-07-22T11:54:35.312Z,24.20
2018-07-22T11:57:03.892Z,24.50
2018-07-22T11:59:32.564Z,24.50
2018-07-22T12:02:00.751Z,24.40
2018-07-22T12:04:28.872Z,24.30
2018-07-22T12:06:57.020Z,24.30
2018-07-22T12:09:25.132Z,24.10
2018-07-22T12:11:53.268Z,24.00
2018-07-22T12:14:21.377Z,24.00
2018-07-22T12:16:49.517Z,23.80
2018-07-22T12:19:17.621Z,23.40
2018-07-22T12:21:45.745Z,22.90
2018-07-22T12:24:13.924Z,22.60
2018-07-22T12:26:42.042Z,22.40
2018-07-22T12:29:10.231Z,22.00
2018-07-22T12:31:38.404Z,21.70
2018-07-22T12:34:06.614Z,21.30
2018-07-22T12:36:35.067Z,21.20
2018-07-22T12:39:03.288Z,21.20
2018-07-22T12:41:31.383Z,21.20
2018-07-22T12:43:59.566Z,21.00
2018-07-22T12:46:27.725Z,20.70
2018-07-22T12:48:55.821Z,20.40
2018-07-22T12:51:23.956Z,20.20
2018-07-22T12:53:52.218Z,20.20
2018-07-22T12:56:20.312Z,20.30
2018-07-22T12:58:48.420Z,20.30
2018-07-22T13:01:16.551Z,20.20
2018-07-22T13:03:44.727Z,20.00
2018-07-22T13:06:12.867Z,19.90
2018-07-22T13:08:41.039Z,19.60
2018-07-22T13:11:09.177Z,19.60
2018-07-22T13:13:37.356Z,19.20
2018-07-22T13:16:05.534Z,19.10
2018-07-22T13:18:33.722Z,19.00
2018-07-22T13:21:01.873Z,19.00
2018-07-22T13:23:30.026Z,19.00
2018-07-22T13:25:58.192Z,19.00
2018-07-22T13:28:26.393Z,19.10
2018-07-22T13:30:54.514Z,19.10
2018-07-22T13:33:22.646Z,19.10
2018-07-22T13:35:50.762Z,19.20
2018-07-22T13:38:19.006Z,19.10
2018-07-22T13:40:47.057Z,19.10
2018-07-22T13:43:15.429Z,19.20
2018-07-22T13:45:43.546Z,19.20
2018-07-22T13:48:11.665Z,19.20
2018-07-22T13:50:39.806Z,19.20
2018-07-22T13:53:08.197Z,19.30
2018-07-22T13:55:36.360Z,19.30
2018-07-22T13:58:04.891Z,19.40
2018-07-22T14:00:33.078Z,19.50
2018-07-22T14:03:01.275Z,19.60
2018-07-22T14:05:29.409Z,19.60
2018-07-22T14:07:57.535Z,19.60
2018-07-22T14:10:25.750Z,19.60
2018-07-22T14:12:53.911Z,19.70
2018-07-22T14:15:22.199Z,19.70
2018-07-22T14:17:50.352Z,19.70
2018-07-22T14:20:18.487Z,19.60
2018-07-22T14:22:46.626Z,19.60
2018-07-22T14:25:14.776Z,19.50
2018-07-22T14:27:44.579Z,19.50
2018-07-22T14:30:12.718Z,19.60
2018-07-22T14:32:40.862Z,19.70
2018-07-22T14:35:09.037Z,19.80
2018-07-22T14:37:37.116Z,19.80
2018-07-22T14:40:05.306Z,19.90
2018-07-22T14:42:33.388Z,19.80
2018-07-22T14:45:01.520Z,19.80
2018-07-22T14:47:29.652Z,19.90
2018-07-22T14:49:57.786Z,19.90
2018-07-22T14:52:25.939Z,19.90
2018-07-22T14:54:54.094Z,20.00
2018-07-22T14:57:22.224Z,20.00
2018-07-22T14:59:50.456Z,20.00
2018-07-22T15:02:18.599Z,20.00
2018-07-22T15:04:46.757Z,20.00
2018-07-22T15:07:14.893Z,20.10
2018-07-22T15:09:43.000Z,20.00
2018-07-22T15:12:11.117Z,19.90
2018-07-22T15:14:39.255Z,19.80
2018-07-22T15:17:07.431Z,19.80
2018-07-22T15:19:35.543Z,19.80
2018-07-22T15:22:03.686Z,19.80
2018-07-22T15:24:31.809Z,19.80
2018-07-22T15:26:59.946Z,19.70
2018-07-22T15:29:28.095Z,19.60
2018-07-22T15:31:56.179Z,19.60
2018-07-22T15:34:24.308Z,19.60
2018-07-22T15:36:52.447Z,19.50
2018-07-22T15:39:20.638Z,19.40
2018-07-22T15:41:48.811Z,19.40
2018-07-22T15:44:16.993Z,19.40
2018-07-22T15:46:45.153Z,19.40
2018-07-22T15:49:14.286Z,19.40
2018-07-22T15:51:42.439Z,19.40
2018-07-22T15:54:10.553Z,19.40
2018-07-22T15:56:38.685Z,19.50
2018-07-22T15:59:06.815Z,19.50
2018-07-22T16:01:34.977Z,19.60
2018-07-22T16:04:03.060Z,19.70
2018-07-22T16:06:31.168Z,19.80
2018-07-22T16:08:59.285Z,19.80
2018-07-22T16:11:27.428Z,19.80
2018-07-22T16:13:55.546Z,19.90
2018-07-22T16:16:23.672Z,19.90
2018-07-22T16:18:51.825Z,20.00
2018-07-22T16:21:19.976Z,20.10
2018-07-22T16:23:48.101Z,20.10
2018-07-22T16:26:16.225Z,20.10
2018-07-22T16:28:44.350Z,20.10
2018-07-22T16:31:12.734Z,20.10
2018-07-22T16:33:40.911Z,20.00
2018-07-22T16:36:08.976Z,20.00
2018-07-22T16:38:37.154Z,20.00
2018-07-22T16:41:05.267Z,20.00
2018-07-22T16:43:33.393Z,20.00
2018-07-22T16:46:01.505Z,19.90
2018-07-22T16:48:29.639Z,19.90
2018-07-22T16:50:57.748Z,19.80
2018-07-22T16:53:25.885Z,19.90
2018-07-22T16:55:53.998Z,19.90
2018-07-22T16:58:22.155Z,19.90
2018-07-22T17:00:50.281Z,19.90
2018-07-22T17:03:18.417Z,19.90
2018-07-22T17:05:46.538Z,19.90
2018-07-22T17:08:14.683Z,19.90
2018-07-22T17:10:42.798Z,19.80
2018-07-22T17:13:10.949Z,19.80
2018-07-22T17:15:39.069Z,19.70
2018-07-22T17:18:07.192Z,19.70
2018-07-22T17:20:35.313Z,19.70
2018-07-22T17:23:03.539Z,19.60
2018-07-22T17:25:31.681Z,19.60
2018-07-22T17:27:59.797Z,19.60
2018-07-22T17:30:27.905Z,19.50
2018-07-22T17:32:56.028Z,19.50
2018-07-22T17:35:24.156Z,19.50
2018-07-22T17:37:52.280Z,19.50
2018-07-22T17:40:20.405Z,19.50
2018-07-22T17:42:48.524Z,19.50
2018-07-22T17:45:16.679Z,19.50
2018-07-22T17:47:44.800Z,19.50
2018-07-22T17:50:12.985Z,19.50
2018-07-22T17:52:41.131Z,19.50
2018-07-22T17:55:09.286Z,19.50
2018-07-22T17:57:37.409Z,19.60
2018-07-22T18:00:06.732Z,19.50
2018-07-22T18:02:34.923Z,19.50
2018-07-22T18:05:03.045Z,19.50
2018-07-22T18:07:31.172Z,19.60
2018-07-22T18:09:59.316Z,19.50
2018-07-22T18:12:27.422Z,19.50
2018-07-22T18:14:55.570Z,19.40
2018-07-22T18:17:23.709Z,19.40
2018-07-22T18:19:51.837Z,19.40
2018-07-22T18:22:19.936Z,19.40
2018-07-22T18:24:48.092Z,19.40
2018-07-22T18:27:16.374Z,19.40
2018-07-22T18:29:44.541Z,19.40
2018-07-22T18:32:13.749Z,19.40
2018-07-22T18:34:41.917Z,19.40
2018-07-22T18:37:10.192Z,19.40
2018-07-22T18:39:38.223Z,19.30
2018-07-22T18:42:06.368Z,19.30
2018-07-22T18:44:34.489Z,19.20
2018-07-22T18:47:02.645Z,19.20
2018-07-22T18:49:30.764Z,19.20
2018-07-22T18:51:58.891Z,19.20
2018-07-22T18:54:27.012Z,19.20
2018-07-22T18:56:55.132Z,19.20
2018-07-22T18:59:23.277Z,19.20
2018-07-22T19:01:51.416Z,19.20
2018-07-22T19:04:19.533Z,19.20
2018-07-22T19:06:47.656Z,19.20
2018-07-22T19:09:15.865Z,19.20
2018-07-22T19:11:44.041Z,19.20
2018-07-22T19:14:12.187Z,19.10
2018-07-22T19:16:40.409Z,19.10
2018-07-22T19:19:08.538Z,19.00
2018-07-22T19:21:36.669Z,19.10
2018-07-22T19:24:04.804Z,19.10
2018-07-22T19:26:32.950Z,19.10
2018-07-22T19:29:01.054Z,19.00
2018-07-22T19:31:29.238Z,18.90
2018-07-22T19:33:57.340Z,18.80
2018-07-22T19:36:25.480Z,18.80
2018-07-22T19:38:53.620Z,18.70
2018-07-22T19:41:21.740Z,18.70
2018-07-22T19:43:49.880Z,18.60
2018-07-22T19:46:18.119Z,18.60
2018-07-22T19:48:46.241Z,18.60
2018-07-22T19:51:14.382Z,18.60
2018-07-22T19:53:42.606Z,18.50
2018-07-22T19:56:10.878Z,18.50
2018-07-22T19:58:39.137Z,18.50
2018-07-22T20:01:07.321Z,18.50
2018-07-22T20:03:35.446Z,18.50
2018-07-22T20:06:06.228Z,18.60
2018-07-22T20:08:34.361Z,18.50
2018-07-22T20:11:02.492Z,18.40
2018-07-22T20:13:30.605Z,18.40
2018-07-22T20:15:58.721Z,18.40
2018-07-22T20:18:26.905Z,18.30
2018-07-22T20:20:54.995Z,18.30
2018-07-22T20:23:23.136Z,18.30
2018-07-22T20:25:51.289Z,18.40
2018-07-22T20:28:19.397Z,18.30
2018-07-22T20:30:47.535Z,18.30
2018-07-22T20:33:15.683Z,18.30
2018-07-22T20:35:43.837Z,18.30
2018-07-22T20:38:11.978Z,18.30
2018-07-22T20:40:40.116Z,18.30
2018-07-22T20:43:08.279Z,18.20
2018-07-22T20:45:36.426Z,18.20
2018-07-22T20:48:04.831Z,18.20
2018-07-22T20:50:32.956Z,18.10
2018-07-22T20:53:01.079Z,18.10
2018-07-22T20:55:29.261Z,18.10
2018-07-22T20:57:57.398Z,18.10
2018-07-22T21:00:25.524Z,18.00
2018-07-22T21:02:53.701Z,18.00
2018-07-22T21:05:21.833Z,18.00
2018-07-22T21:07:49.991Z,18.00
2018-07-22T21:10:18.140Z,18.00
2018-07-22T21:12:57.664Z,17.90
2018-07-22T21:15:25.801Z,17.80
2018-07-22T21:17:53.920Z,17.80
2018-07-22T21:20:22.519Z,17.90
2018-07-22T21:22:50.662Z,17.90
2018-07-22T21:25:19.129Z,17.80
2018-07-22T21:27:47.291Z,17.80
2018-07-22T21:30:15.809Z,17.80
2018-07-22T21:32:43.954Z,17.80
2018-07-22T21:35:12.137Z,17.80
2018-07-22T21:37:40.504Z,17.70
2018-07-22T21:40:08.725Z,17.70
2018-07-22T21:42:36.856Z,17.80
2018-07-22T21:45:05.896Z,17.80
2018-07-22T21:47:34.091Z,17.80
2018-07-22T21:50:02.279Z,17.80
2018-07-22T21:52:30.429Z,17.80
2018-07-22T21:54:58.552Z,17.80
2018-07-22T21:57:26.705Z,17.80
2018-07-22T21:59:54.840Z,17.90
2018-07-22T22:02:28.558Z,17.80
2018-07-22T22:04:56.680Z,17.70
2018-07-22T22:07:24.882Z,17.70
2018-07-22T22:09:53.087Z,17.70
2018-07-22T22:12:21.270Z,17.60
2018-07-22T22:14:49.401Z,17.50
2018-07-22T22:17:17.589Z,17.50
2018-07-22T22:19:45.869Z,17.50
2018-07-22T22:22:14.109Z,17.40
2018-07-22T22:24:42.423Z,17.40
2018-07-22T22:27:10.633Z,17.40
2018-07-22T22:29:38.786Z,17.50
2018-07-22T22:32:07.068Z,17.50
2018-07-22T22:34:35.202Z,17.50
2018-07-22T22:37:03.315Z,17.50
2018-07-22T22:39:31.449Z,17.50
2018-07-22T22:41:59.580Z,17.50
2018-07-22T22:44:27.746Z,17.50
2018-07-22T22:46:55.863Z,17.50
2018-07-22T22:49:24.009Z,17.50
2018-07-22T22:51:52.132Z,17.50
2018-07-22T22:54:20.254Z,17.50
2018-07-22T22:56:48.427Z,17.50
2018-07-22T22:59:18.851Z,17.50
2018-07-22T23:01:47.051Z,17.50
2018-07-22T23:04:15.494Z,17.40
2018-07-22T23:06:43.655Z,17.40
2018-07-22T23:09:13.065Z,17.40
2018-07-22T23:11:41.436Z,17.30
2018-07-22T23:14:09.606Z,17.30
2018-07-22T23:16:38.445Z,17.30
2018-07-22T23:19:06.636Z,17.30
2018-07-22T23:21:34.904Z,17.30
2018-07-22T23:24:03.052Z,17.30
2018-07-22T23:26:31.859Z,17.30
2018-07-22T23:29:00.082Z,17.20
2018-07-22T23:31:28.220Z,17.30
2018-07-22T23:33:56.645Z,17.30
2018-07-22T23:36:24.779Z,17.30
2018-07-22T23:38:52.896Z,17.30
2018-07-22T23:41:21.144Z,17.20
2018-07-22T23:43:49.257Z,17.20
2018-07-22T23:46:17.370Z,17.20
2018-07-22T23:48:45.590Z,17.20
2018-07-22T23:51:13.751Z,17.20
2018-07-22T23:53:41.877Z,17.20
2018-07-22T23:56:10.048Z,17.30
2018-07-22T23:58:38.170Z,17.20
